Leo Leader — 3FQK9 — position and weather

sailwx.info

Track history (hours):
 
Tides and Currents Weather Stations Pressure Air Temp Water Temp Dewpoint Dewpoint Depression Visibility Wind Speed Wind Dir Waves Ship Positions

Leo Leader

Last reported at 2018-Feb-10 04:39 UTC. Time now 2018-Feb-19 16:24 UTC.
Position N 46°40' W 125°13'.
Warning: this ship's position is 9 days out of date.

Length 200 m; draft 7.8 m.

Type: Cargo ship. MMSI: 357682000.

Date/timePositionNaut miles runAvg speedWind from/ knotsBaromVisibWave heightAir tempDewpointWater temp
2018-Feb-10 04:39N 46°40' W 125°13'1 9.3
2018-Feb-10 04:30N 46°41' W 125°11'1016.4
2018-Feb-10 03:53N 46°43' W 124°56'616.6
2018-Feb-10 03:30N 46°45' W 124°48'916.2
2018-Feb-10 02:58N 46°47' W 124°35'716.2
2018-Feb-10 02:30N 46°49' W 124°24'714.1
2018-Feb-10 02:00N 46°52' W 124°16'3 6.1
2018-Feb-10 01:30N 46°54' W 124°12'812.3
2018-Feb-10 00:52N 46°56' W 124°01'2 0.1
2018-Feb-08 22:30N 46°55' W 124°04'5510.0
2018-Feb-08 17:00N 46°20' W 125°06'9 8.8
2018-Feb-08 16:00N 46°12' W 125°09'816.5
2018-Feb-08 15:30N 46°03' W 125°09'1616.2
2018-Feb-08 14:30N 45°47' W 125°08'816.0
2018-Feb-08 14:00N 45°39' W 125°08'816.3
2018-Feb-08 13:30N 45°31' W 125°08'816.6
2018-Feb-08 13:00N 45°23' W 125°08'3417.0
2018-Feb-08 11:00N 44°49' W 125°08'2617.0
2018-Feb-08 09:30N 44°23' W 125°08'1716.8
2018-Feb-08 08:30N 44°06' W 125°07'3416.8
2018-Feb-08 06:30N 43°33' W 125°07'30414.5
2018-Feb-07 09:30N 38°35' W 123°44'815.9
2018-Feb-07 09:00N 38°29' W 123°38'815.9
2018-Feb-07 08:30N 38°22' W 123°32'816.1
2018-Feb-07 08:00N 38°16' W 123°26'816.3
2018-Feb-07 07:30N 38°09' W 123°20'816.6
2018-Feb-07 07:00N 38°03' W 123°13'816.4
2018-Feb-07 06:29N 37°57' W 123°05'2315.5
2018-Feb-07 05:00N 37°46' W 122°40'1313.1
2018-Feb-07 04:00N 37°53' W 122°25'714.3
2018-Feb-07 03:30N 37°60' W 122°25'713.9
2018-Feb-07 03:00N 38°03' W 122°18'711.5
2018-Feb-07 02:26N 38°02' W 122°09'1 2.0
2018-Feb-07 01:53N 38°02' W 122°08'0 0.0
2018-Feb-07 01:23N 38°02' W 122°08'0 0.0
2018-Feb-07 00:59N 38°02' W 122°08'0 0.0
2018-Feb-07 00:29N 38°02' W 122°08'0 0.0
2018-Feb-06 23:59N 38°02' W 122°08'0 0.0
2018-Feb-06 20:05N 38°02' W 122°08'0 0.0
2018-Feb-06 18:59N 38°02' W 122°08'0 0.0
2018-Feb-06 18:17N 38°02' W 122°08'0 0.0
2018-Feb-06 17:59N 38°02' W 122°08'0 0.0
2018-Feb-06 17:29N 38°02' W 122°08'0 0.0
2018-Feb-06 16:59N 38°02' W 122°08'0 0.0
2018-Feb-06 16:17N 38°02' W 122°08'0 0.0
2018-Feb-06 15:59N 38°02' W 122°08'0 0.0
2018-Feb-06 15:29N 38°02' W 122°08'0 0.0
2018-Feb-06 14:59N 38°02' W 122°08'0 0.0
2018-Feb-06 14:29N 38°02' W 122°08'0 0.0
2018-Feb-06 13:53N 38°02' W 122°08'0 0.0
2018-Feb-06 13:29N 38°02' W 122°08'0 0.0
2018-Feb-06 12:59N 38°02' W 122°08'0 0.0
2018-Feb-06 12:29N 38°02' W 122°08'0 0.0
2018-Feb-06 11:59N 38°02' W 122°08'0 0.0
2018-Feb-06 11:17N 38°02' W 122°08'0 0.0
2018-Feb-06 10:59N 38°02' W 122°08'0 0.0
2018-Feb-06 10:29N 38°02' W 122°08'0 0.2
2018-Feb-06 10:00N 38°02' W 122°08'2 3.3
2018-Feb-06 09:30N 38°02' W 122°10'18 9.1
2018-Feb-06 07:30N 37°49' W 122°26'612.1
2018-Feb-06 07:00N 37°47' W 122°33'612.6
2018-Feb-06 06:30N 37°45' W 122°40'5 9.0
2018-Feb-06 06:00N 37°40' W 122°40'611.2
2018-Feb-06 05:30N 37°34' W 122°40'713.6
2018-Feb-06 05:00N 37°28' W 122°40'816.0
2018-Feb-06 04:30N 37°20' W 122°40'815.5
2018-Feb-06 03:59N 37°12' W 122°38'815.9
2018-Feb-06 03:30N 37°04' W 122°35'816.1
2018-Feb-06 02:59N 36°56' W 122°33'816.1
2018-Feb-06 02:30N 36°49' W 122°30'1615.7
2018-Feb-06 01:30N 36°34' W 122°23'2813.8
2018-Feb-05 23:30N 36°08' W 122°13'2 1.8
2018-Feb-05 22:30N 36°09' W 122°15'1 1.9
2018-Feb-05 22:00N 36°09' W 122°16'10 9.6
2018-Feb-05 21:00N 36°02' W 122°09'1315.8
2018-Feb-05 20:09N 35°50' W 122°01'416.2
2018-Feb-05 19:56N 35°46' W 121°60'916.1
2018-Feb-05 19:21N 35°37' W 121°56'616.3
2018-Feb-05 19:00N 35°32' W 121°53'816.4
2018-Feb-05 18:30N 35°25' W 121°50'1716.6
2018-Feb-05 17:30N 35°09' W 121°42'816.4
2018-Feb-05 16:59N 35°01' W 121°38'1616.1
2018-Feb-05 16:00N 34°46' W 121°32'1615.5
2018-Feb-05 15:00N 34°33' W 121°22'916.4
2018-Feb-05 14:28N 34°31' W 121°12'816.2
2018-Feb-05 14:00N 34°29' W 121°03'816.8
2018-Feb-05 13:30N 34°27' W 120°53'1716.6
2018-Feb-05 12:30N 34°22' W 120°33'816.2
2018-Feb-05 12:00N 34°20' W 120°24'816.5
2018-Feb-05 11:30N 34°18' W 120°14'1616.4
2018-Feb-05 10:30N 34°13' W 119°55'816.6
2018-Feb-05 10:00N 34°11' W 119°45'816.2
2018-Feb-05 09:30N 34°09' W 119°36'816.6
2018-Feb-05 09:00N 34°07' W 119°27'916.9
2018-Feb-05 08:30N 34°05' W 119°16'816.1
2018-Feb-05 08:00N 34°01' W 119°08'611.9
2018-Feb-05 07:29N 33°58' W 119°02'5 9.7
2018-Feb-05 07:00N 33°55' W 118°57'510.0
2018-Feb-05 06:30N 33°53' W 118°51'1010.0
2018-Feb-05 05:29N 33°48' W 118°41'510.2
2018-Feb-05 04:59N 33°45' W 118°36'510.0
2018-Feb-05 04:30N 33°43' W 118°30'5 9.9
2018-Feb-05 04:01N 33°41' W 118°25'510.2
2018-Feb-05 03:30N 33°38' W 118°20'510.0
2018-Feb-05 03:00N 33°38' W 118°14'4 8.1
2018-Feb-05 02:31N 33°42' W 118°11'3 6.9
2018-Feb-05 02:00N 33°45' W 118°13'1 2.9
2018-Feb-05 01:30N 33°46' W 118°13'0 0.0
2018-Feb-05 01:00N 33°46' W 118°13'0 0.0
2018-Feb-05 00:30N 33°46' W 118°13'0 0.0
2018-Feb-05 00:00N 33°46' W 118°13'0 0.0
2018-Feb-04 23:31N 33°46' W 118°13'0 0.0
2018-Feb-04 23:00N 33°46' W 118°13'0 0.0
2018-Feb-04 22:31N 33°46' W 118°13'0 0.0
2018-Feb-04 22:01N 33°46' W 118°13'0 0.0
2018-Feb-04 21:30N 33°46' W 118°13'0 0.0
2018-Feb-04 21:01N 33°46' W 118°13'0 0.0
2018-Feb-04 20:01N 33°46' W 118°13'0 0.0
2018-Feb-04 19:31N 33°46' W 118°13'0 0.0
2018-Feb-04 19:01N 33°46' W 118°13'0 0.0
2018-Feb-04 18:31N 33°46' W 118°13'0 0.0
2018-Feb-04 18:01N 33°46' W 118°13'0 0.0
2018-Feb-04 17:31N 33°46' W 118°13'0 0.0
2018-Feb-04 15:31N 33°46' W 118°13'0 0.0
2018-Feb-04 15:01N 33°46' W 118°13'0 0.0
2018-Feb-04 14:31N 33°46' W 118°13'0 0.0
2018-Feb-04 14:01N 33°46' W 118°13'0 0.0
2018-Feb-04 13:31N 33°46' W 118°13'0 0.0
2018-Feb-04 13:01N 33°46' W 118°13'0 0.0
2018-Feb-04 12:31N 33°46' W 118°13'0 0.0
2018-Feb-04 12:01N 33°46' W 118°13'0 0.0
2018-Feb-04 11:30N 33°46' W 118°13'5 3.5
2018-Feb-04 10:01N 33°42' W 118°11'7 7.1
2018-Feb-04 09:01N 33°35' W 118°09'5 9.5
2018-Feb-04 08:30N 33°30' W 118°07'5 9.4
2018-Feb-04 08:00N 33°26' W 118°05'5 9.6
2018-Feb-04 07:30N 33°21' W 118°03'5 9.5
2018-Feb-04 07:00N 33°17' W 118°02'5 9.7
2018-Feb-04 06:30N 33°12' W 118°00'5 9.6
2018-Feb-04 06:01N 33°07' W 117°59'510.3
2018-Feb-04 05:30N 33°02' W 117°58'611.4
2018-Feb-04 05:00N 32°57' W 117°54'4 8.8
2018-Feb-04 04:30N 32°53' W 117°53'612.0
2018-Feb-04 04:00N 32°48' W 117°50'816.5
2018-Feb-04 03:30N 32°40' W 117°46'816.1
2018-Feb-04 03:00N 32°32' W 117°44'816.4
2018-Feb-04 02:30N 32°24' W 117°42'816.5
2018-Feb-04 02:00N 32°16' W 117°40'916.7
2018-Feb-04 01:30N 32°08' W 117°37'1016.6
2018-Feb-04 00:55N 31°59' W 117°33'716.5
2018-Feb-04 00:30N 31°52' W 117°31'1816.1
2018-Feb-03 23:22N 31°35' W 117°25'615.9
2018-Feb-03 23:00N 31°29' W 117°23'815.8
2018-Feb-03 22:30N 31°22' W 117°20'816.0
2018-Feb-03 21:59N 31°14' W 117°18'816.4
2018-Feb-03 21:30N 31°06' W 117°15'816.3
2018-Feb-03 20:59N 30°58' W 117°12'816.3
2018-Feb-03 20:30N 30°50' W 117°10'916.4
2018-Feb-03 19:59N 30°42' W 117°06'3416.5
2018-Feb-03 17:54N 30°10' W 116°51'177 7.7
2018-Feb-02 18:48N 27°19' W 115°58'414.7
2018-Feb-02 18:30N 27°15' W 115°57'  
Track history (hours):
 
Tides and Currents Weather Stations Pressure Air Temp Water Temp Dewpoint Dewpoint Depression Visibility Wind Speed Wind Dir Waves Ship Positions

Leo Leader

Last reported at 2018-Feb-10 04:39 UTC. Time now 2018-Feb-19 16:24 UTC.
Position N 46°40' W 125°13'.
Warning: this ship's position is 9 days out of date.

Length 200 m; draft 7.8 m.

Type: Cargo ship. MMSI: 357682000.

Date/timePositionNaut miles runAvg speedWind from/ knotsBaromVisibWave heightAir tempDewpointWater temp
2018-Feb-10 04:39N 46°40' W 125°13'1 9.3
2018-Feb-10 04:30N 46°41' W 125°11'1016.4
2018-Feb-10 03:53N 46°43' W 124°56'616.6
2018-Feb-10 03:30N 46°45' W 124°48'916.2
2018-Feb-10 02:58N 46°47' W 124°35'716.2
2018-Feb-10 02:30N 46°49' W 124°24'714.1
2018-Feb-10 02:00N 46°52' W 124°16'3 6.1
2018-Feb-10 01:30N 46°54' W 124°12'812.3
2018-Feb-10 00:52N 46°56' W 124°01'2 0.1
2018-Feb-08 22:30N 46°55' W 124°04'5510.0
2018-Feb-08 17:00N 46°20' W 125°06'9 8.8
2018-Feb-08 16:00N 46°12' W 125°09'816.5
2018-Feb-08 15:30N 46°03' W 125°09'1616.2
2018-Feb-08 14:30N 45°47' W 125°08'816.0
2018-Feb-08 14:00N 45°39' W 125°08'816.3
2018-Feb-08 13:30N 45°31' W 125°08'816.6
2018-Feb-08 13:00N 45°23' W 125°08'3417.0
2018-Feb-08 11:00N 44°49' W 125°08'2617.0
2018-Feb-08 09:30N 44°23' W 125°08'1716.8
2018-Feb-08 08:30N 44°06' W 125°07'3416.8
2018-Feb-08 06:30N 43°33' W 125°07'30414.5
2018-Feb-07 09:30N 38°35' W 123°44'815.9
2018-Feb-07 09:00N 38°29' W 123°38'815.9
2018-Feb-07 08:30N 38°22' W 123°32'816.1
2018-Feb-07 08:00N 38°16' W 123°26'816.3
2018-Feb-07 07:30N 38°09' W 123°20'816.6
2018-Feb-07 07:00N 38°03' W 123°13'816.4
2018-Feb-07 06:29N 37°57' W 123°05'2315.5
2018-Feb-07 05:00N 37°46' W 122°40'1313.1
2018-Feb-07 04:00N 37°53' W 122°25'714.3
2018-Feb-07 03:30N 37°60' W 122°25'713.9
2018-Feb-07 03:00N 38°03' W 122°18'711.5
2018-Feb-07 02:26N 38°02' W 122°09'1 2.0
2018-Feb-07 01:53N 38°02' W 122°08'0 0.0
2018-Feb-07 01:23N 38°02' W 122°08'0 0.0
2018-Feb-07 00:59N 38°02' W 122°08'0 0.0
2018-Feb-07 00:29N 38°02' W 122°08'0 0.0
2018-Feb-06 23:59N 38°02' W 122°08'0 0.0
2018-Feb-06 20:05N 38°02' W 122°08'0 0.0
2018-Feb-06 18:59N 38°02' W 122°08'0 0.0
2018-Feb-06 18:17N 38°02' W 122°08'0 0.0
2018-Feb-06 17:59N 38°02' W 122°08'0 0.0
2018-Feb-06 17:29N 38°02' W 122°08'0 0.0
2018-Feb-06 16:59N 38°02' W 122°08'0 0.0
2018-Feb-06 16:17N 38°02' W 122°08'0 0.0
2018-Feb-06 15:59N 38°02' W 122°08'0 0.0
2018-Feb-06 15:29N 38°02' W 122°08'0 0.0
2018-Feb-06 14:59N 38°02' W 122°08'0 0.0
2018-Feb-06 14:29N 38°02' W 122°08'0 0.0
2018-Feb-06 13:53N 38°02' W 122°08'0 0.0
2018-Feb-06 13:29N 38°02' W 122°08'0 0.0
2018-Feb-06 12:59N 38°02' W 122°08'0 0.0
2018-Feb-06 12:29N 38°02' W 122°08'0 0.0
2018-Feb-06 11:59N 38°02' W 122°08'0 0.0
2018-Feb-06 11:17N 38°02' W 122°08'0 0.0
2018-Feb-06 10:59N 38°02' W 122°08'0 0.0
2018-Feb-06 10:29N 38°02' W 122°08'0 0.2
2018-Feb-06 10:00N 38°02' W 122°08'2 3.3
2018-Feb-06 09:30N 38°02' W 122°10'18 9.1
2018-Feb-06 07:30N 37°49' W 122°26'612.1
2018-Feb-06 07:00N 37°47' W 122°33'612.6
2018-Feb-06 06:30N 37°45' W 122°40'5 9.0
2018-Feb-06 06:00N 37°40' W 122°40'611.2
2018-Feb-06 05:30N 37°34' W 122°40'713.6
2018-Feb-06 05:00N 37°28' W 122°40'816.0
2018-Feb-06 04:30N 37°20' W 122°40'815.5
2018-Feb-06 03:59N 37°12' W 122°38'815.9
2018-Feb-06 03:30N 37°04' W 122°35'816.1
2018-Feb-06 02:59N 36°56' W 122°33'816.1
2018-Feb-06 02:30N 36°49' W 122°30'1615.7
2018-Feb-06 01:30N 36°34' W 122°23'2813.8
2018-Feb-05 23:30N 36°08' W 122°13'2 1.8
2018-Feb-05 22:30N 36°09' W 122°15'1 1.9
2018-Feb-05 22:00N 36°09' W 122°16'10 9.6
2018-Feb-05 21:00N 36°02' W 122°09'1315.8
2018-Feb-05 20:09N 35°50' W 122°01'416.2
2018-Feb-05 19:56N 35°46' W 121°60'916.1
2018-Feb-05 19:21N 35°37' W 121°56'616.3
2018-Feb-05 19:00N 35°32' W 121°53'816.4
2018-Feb-05 18:30N 35°25' W 121°50'1716.6
2018-Feb-05 17:30N 35°09' W 121°42'816.4
2018-Feb-05 16:59N 35°01' W 121°38'1616.1
2018-Feb-05 16:00N 34°46' W 121°32'1615.5
2018-Feb-05 15:00N 34°33' W 121°22'916.4
2018-Feb-05 14:28N 34°31' W 121°12'816.2
2018-Feb-05 14:00N 34°29' W 121°03'816.8
2018-Feb-05 13:30N 34°27' W 120°53'1716.6
2018-Feb-05 12:30N 34°22' W 120°33'816.2
2018-Feb-05 12:00N 34°20' W 120°24'816.5
2018-Feb-05 11:30N 34°18' W 120°14'1616.4
2018-Feb-05 10:30N 34°13' W 119°55'816.6
2018-Feb-05 10:00N 34°11' W 119°45'816.2
2018-Feb-05 09:30N 34°09' W 119°36'816.6
2018-Feb-05 09:00N 34°07' W 119°27'916.9
2018-Feb-05 08:30N 34°05' W 119°16'816.1
2018-Feb-05 08:00N 34°01' W 119°08'611.9
2018-Feb-05 07:29N 33°58' W 119°02'5 9.7
2018-Feb-05 07:00N 33°55' W 118°57'510.0
2018-Feb-05 06:30N 33°53' W 118°51'1010.0
2018-Feb-05 05:29N 33°48' W 118°41'510.2
2018-Feb-05 04:59N 33°45' W 118°36'510.0
2018-Feb-05 04:30N 33°43' W 118°30'5 9.9
2018-Feb-05 04:01N 33°41' W 118°25'510.2
2018-Feb-05 03:30N 33°38' W 118°20'510.0
2018-Feb-05 03:00N 33°38' W 118°14'4 8.1
2018-Feb-05 02:31N 33°42' W 118°11'3 6.9
2018-Feb-05 02:00N 33°45' W 118°13'1 2.9
2018-Feb-05 01:30N 33°46' W 118°13'0 0.0
2018-Feb-05 01:00N 33°46' W 118°13'0 0.0
2018-Feb-05 00:30N 33°46' W 118°13'0 0.0
2018-Feb-05 00:00N 33°46' W 118°13'0 0.0
2018-Feb-04 23:31N 33°46' W 118°13'0 0.0
2018-Feb-04 23:00N 33°46' W 118°13'0 0.0
2018-Feb-04 22:31N 33°46' W 118°13'0 0.0
2018-Feb-04 22:01N 33°46' W 118°13'0 0.0
2018-Feb-04 21:30N 33°46' W 118°13'0 0.0
2018-Feb-04 21:01N 33°46' W 118°13'0 0.0
2018-Feb-04 20:01N 33°46' W 118°13'0 0.0
2018-Feb-04 19:31N 33°46' W 118°13'0 0.0
2018-Feb-04 19:01N 33°46' W 118°13'0 0.0
2018-Feb-04 18:31N 33°46' W 118°13'0 0.0
2018-Feb-04 18:01N 33°46' W 118°13'0 0.0
2018-Feb-04 17:31N 33°46' W 118°13'0 0.0
2018-Feb-04 15:31N 33°46' W 118°13'0 0.0
2018-Feb-04 15:01N 33°46' W 118°13'0 0.0
2018-Feb-04 14:31N 33°46' W 118°13'0 0.0
2018-Feb-04 14:01N 33°46' W 118°13'0 0.0
2018-Feb-04 13:31N 33°46' W 118°13'0 0.0
2018-Feb-04 13:01N 33°46' W 118°13'0 0.0
2018-Feb-04 12:31N 33°46' W 118°13'0 0.0
2018-Feb-04 12:01N 33°46' W 118°13'0 0.0
2018-Feb-04 11:30N 33°46' W 118°13'5 3.5
2018-Feb-04 10:01N 33°42' W 118°11'7 7.1
2018-Feb-04 09:01N 33°35' W 118°09'5 9.5
2018-Feb-04 08:30N 33°30' W 118°07'5 9.4
2018-Feb-04 08:00N 33°26' W 118°05'5 9.6
2018-Feb-04 07:30N 33°21' W 118°03'5 9.5
2018-Feb-04 07:00N 33°17' W 118°02'5 9.7
2018-Feb-04 06:30N 33°12' W 118°00'5 9.6
2018-Feb-04 06:01N 33°07' W 117°59'510.3
2018-Feb-04 05:30N 33°02' W 117°58'611.4
2018-Feb-04 05:00N 32°57' W 117°54'4 8.8
2018-Feb-04 04:30N 32°53' W 117°53'612.0
2018-Feb-04 04:00N 32°48' W 117°50'816.5
2018-Feb-04 03:30N 32°40' W 117°46'816.1
2018-Feb-04 03:00N 32°32' W 117°44'816.4
2018-Feb-04 02:30N 32°24' W 117°42'816.5
2018-Feb-04 02:00N 32°16' W 117°40'916.7
2018-Feb-04 01:30N 32°08' W 117°37'1016.6
2018-Feb-04 00:55N 31°59' W 117°33'716.5
2018-Feb-04 00:30N 31°52' W 117°31'1816.1
2018-Feb-03 23:22N 31°35' W 117°25'615.9
2018-Feb-03 23:00N 31°29' W 117°23'815.8
2018-Feb-03 22:30N 31°22' W 117°20'816.0
2018-Feb-03 21:59N 31°14' W 117°18'816.4
2018-Feb-03 21:30N 31°06' W 117°15'816.3
2018-Feb-03 20:59N 30°58' W 117°12'816.3
2018-Feb-03 20:30N 30°50' W 117°10'916.4
2018-Feb-03 19:59N 30°42' W 117°06'3416.5
2018-Feb-03 17:54N 30°10' W 116°51'177 7.7
2018-Feb-02 18:48N 27°19' W 115°58'414.7
2018-Feb-02 18:30N 27°15' W 115°57'  

Dump ship's entire track history